createdAt,value
2023-05-01T01:43:54.310Z,101611.50
2023-05-01T02:24:57.621Z,101562.59
2023-05-01T02:31:04.440Z,101582.56
2023-05-01T03:03:13.710Z,101545.66
2023-05-01T03:55:45.413Z,101499.16
2023-05-01T04:11:49.628Z,101481.97
2023-05-01T05:05:56.869Z,101431.56
2023-05-01T05:12:18.838Z,101470.38
2023-05-01T05:14:45.860Z,101461.66
2023-05-01T05:20:58.501Z,101443.84
2023-05-01T05:23:47.690Z,101473.41
2023-05-01T05:26:20.740Z,101461.06
2023-05-01T05:49:16.785Z,101459.41
2023-05-01T06:26:07.316Z,101438.97
2023-05-01T06:38:09.716Z,101403.56
2023-05-01T06:44:14.012Z,101442.09
2023-05-01T06:46:41.212Z,101405.63
2023-05-01T06:49:24.196Z,101400.47
2023-05-01T06:52:09.933Z,101403.38
2023-05-01T06:57:24.411Z,101405.09
2023-05-01T07:13:12.296Z,101408.41
2023-05-01T07:15:40.907Z,101396.75
2023-05-01T07:18:18.787Z,101403.41
2023-05-01T07:31:12.857Z,101394.06
2023-05-01T07:37:18.762Z,101426.50
2023-05-01T07:45:43.783Z,101396.25
2023-05-01T07:48:16.592Z,101407.38
2023-05-01T08:09:47.551Z,101383.25
2023-05-01T08:40:32.847Z,101385.56
2023-05-01T08:47:20.927Z,101376.94
2023-05-01T08:49:58.933Z,101365.44
2023-05-01T08:52:31.941Z,101362.59
2023-05-01T08:58:06.864Z,101362.03
2023-05-01T09:00:45.862Z,101360.84
2023-05-01T09:03:19.008Z,101356.28
2023-05-01T09:08:56.348Z,101360.50
2023-05-01T09:11:37.938Z,101361.41
2023-05-01T09:20:18.959Z,101357.16
2023-05-01T09:25:52.042Z,101368.56
2023-05-01T09:28:18.990Z,101368.47
2023-05-01T09:30:52.966Z,101362.09
2023-05-01T09:33:19.891Z,101349.69
2023-05-01T09:35:57.060Z,101351.38
2023-05-01T09:38:32.908Z,101349.03
2023-05-01T09:41:11.879Z,101349.72
2023-05-01T09:43:45.839Z,101341.00
2023-05-01T09:46:13.371Z,101339.88
2023-05-01T09:48:46.810Z,101355.94
2023-05-01T09:51:24.957Z,101348.41
2023-05-01T09:53:58.916Z,101339.56
2023-05-01T09:56:31.948Z,101340.22
2023-05-01T09:59:21.934Z,101354.41
2023-05-01T10:01:50.871Z,101360.38
2023-05-01T10:04:24.928Z,101350.25
2023-05-01T10:06:51.962Z,101344.88
2023-05-01T10:09:35.006Z,101361.81
2023-05-01T10:12:08.327Z,101335.34
2023-05-01T10:14:55.837Z,101352.28
2023-05-01T10:17:23.139Z,101335.56
2023-05-01T10:19:58.197Z,101327.22
2023-05-01T10:22:26.665Z,101367.63
2023-05-01T10:25:02.172Z,101332.22
2023-05-01T10:27:29.129Z,101345.78
2023-05-01T10:30:11.667Z,101344.88
2023-05-01T10:35:28.836Z,101355.28
2023-05-01T10:41:17.925Z,101331.53
2023-05-01T10:47:39.479Z,101331.63
2023-05-01T10:50:07.369Z,101329.09
2023-05-01T10:53:22.834Z,101348.50
2023-05-01T10:55:49.947Z,101329.78
2023-05-01T10:58:44.883Z,101324.91
2023-05-01T11:01:43.824Z,101339.81
2023-05-01T11:04:25.960Z,101345.06
2023-05-01T11:07:08.982Z,101345.03
2023-05-01T11:09:47.908Z,101343.84
2023-05-01T11:12:22.987Z,101319.34
2023-05-01T11:15:10.006Z,101344.59
2023-05-01T11:17:48.941Z,101316.72
2023-05-01T11:20:31.897Z,101332.38
2023-05-01T11:23:05.880Z,101332.16
2023-05-01T11:25:33.372Z,101299.69
2023-05-01T11:28:08.933Z,101315.72
2023-05-01T11:30:42.438Z,101325.63
2023-05-01T11:33:15.974Z,101306.72
2023-05-01T11:35:49.911Z,101317.22
2023-05-01T11:38:25.913Z,101302.00
2023-05-01T11:40:56.306Z,101302.91
2023-05-01T11:43:29.938Z,101295.69
2023-05-01T11:46:02.750Z,101324.03
2023-05-01T11:48:43.918Z,101309.47
2023-05-01T11:51:20.965Z,101308.88
2023-05-01T11:54:05.509Z,101315.63
2023-05-01T11:56:47.923Z,101297.31
2023-05-01T11:59:25.893Z,101314.06
2023-05-01T12:01:53.778Z,101297.56
2023-05-01T12:04:35.133Z,101294.38
2023-05-01T12:07:08.898Z,101290.41
2023-05-01T12:09:36.034Z,101293.66
2023-05-01T12:12:15.895Z,101299.31
2023-05-01T12:14:49.150Z,101290.69
2023-05-01T12:17:23.070Z,101301.22
2023-05-01T12:19:50.132Z,101282.19
2023-05-01T12:22:23.905Z,101302.38
2023-05-01T12:24:59.240Z,101286.66
2023-05-01T12:27:26.264Z,101278.91
2023-05-01T12:29:59.939Z,101281.69
2023-05-01T12:32:37.972Z,101287.31
2023-05-01T12:35:17.455Z,101294.03
2023-05-01T12:37:50.938Z,101289.75
2023-05-01T12:40:17.796Z,101276.81
2023-05-01T12:42:51.920Z,101280.31
2023-05-01T12:45:24.920Z,101267.00
2023-05-01T12:47:59.096Z,101300.78
2023-05-01T12:50:26.094Z,101298.56
2023-05-01T12:52:59.993Z,101282.88
2023-05-01T12:55:27.091Z,101292.53
2023-05-01T12:58:01.007Z,101286.94
2023-05-01T13:00:27.860Z,101287.16
2023-05-01T13:03:01.009Z,101287.16
2023-05-01T13:05:33.982Z,101279.59
2023-05-01T13:08:06.970Z,101283.50
2023-05-01T13:10:33.850Z,101288.19
2023-05-01T13:13:13.972Z,101266.00
2023-05-01T13:15:40.850Z,101263.88
2023-05-01T13:18:15.014Z,101264.97
2023-05-01T13:20:42.744Z,101280.56
2023-05-01T13:23:22.105Z,101269.38
2023-05-01T13:26:03.965Z,101270.16
2023-05-01T13:28:32.474Z,101257.25
2023-05-01T13:31:06.099Z,101262.88
2023-05-01T13:33:33.081Z,101279.53
2023-05-01T13:36:21.666Z,101255.69
2023-05-01T13:38:56.487Z,101258.31
2023-05-01T13:41:32.043Z,101262.53
2023-05-01T13:43:59.076Z,101262.00
2023-05-01T13:46:36.288Z,101272.97
2023-05-01T13:49:08.335Z,101274.88
2023-05-01T13:51:49.550Z,101264.84
2023-05-01T13:54:17.263Z,101273.59
2023-05-01T13:56:51.007Z,101278.50
2023-05-01T13:59:17.798Z,101265.16
2023-05-01T14:01:52.989Z,101287.53
2023-05-01T14:04:21.468Z,101287.38
2023-05-01T14:06:55.202Z,101296.00
2023-05-01T14:09:23.548Z,101283.38
2023-05-01T14:11:58.010Z,101291.66
2023-05-01T14:14:37.947Z,101281.59
2023-05-01T14:17:11.079Z,101285.53
2023-05-01T14:19:40.039Z,101265.50
2023-05-01T14:22:10.978Z,101279.53
2023-05-01T14:24:48.105Z,101278.19
2023-05-01T14:27:15.825Z,101274.88
2023-05-01T14:29:53.017Z,101269.88
2023-05-01T14:32:19.833Z,101261.06
2023-05-01T14:34:53.045Z,101265.91
2023-05-01T14:37:20.098Z,101265.16
2023-05-01T14:39:53.094Z,101272.34
2023-05-01T14:42:19.979Z,101285.09
2023-05-01T14:44:53.030Z,101296.25
2023-05-01T14:47:22.110Z,101282.47
2023-05-01T14:50:01.069Z,101274.88
2023-05-01T14:52:28.099Z,101281.44
2023-05-01T14:55:01.175Z,101296.38
2023-05-01T14:57:29.272Z,101284.28
2023-05-01T15:00:03.034Z,101280.06
2023-05-01T15:02:30.485Z,101286.31
2023-05-01T15:05:04.123Z,101271.97
2023-05-01T15:07:37.004Z,101279.31
2023-05-01T15:10:05.119Z,101285.66
2023-05-01T15:12:38.090Z,101263.84
2023-05-01T15:15:05.721Z,101273.63
2023-05-01T15:17:39.107Z,101253.91
2023-05-01T15:20:06.882Z,101276.69
2023-05-01T15:22:41.029Z,101271.91
2023-05-01T15:25:10.903Z,101270.44
2023-05-01T15:27:46.025Z,101265.72
2023-05-01T15:30:15.263Z,101266.19
2023-05-01T15:32:42.379Z,101273.75
2023-05-01T15:35:16.122Z,101284.06
2023-05-01T15:37:42.982Z,101286.94
2023-05-01T15:40:17.203Z,101276.13
2023-05-01T15:42:45.889Z,101283.94
2023-05-01T15:45:19.219Z,101288.56
2023-05-01T15:47:46.480Z,101283.56
2023-05-01T15:50:20.960Z,101293.06
2023-05-01T15:52:48.746Z,101278.22
2023-05-01T15:55:22.139Z,101278.31
2023-05-01T15:57:49.045Z,101300.47
2023-05-01T16:00:24.102Z,101294.72
2023-05-01T16:02:57.236Z,101307.84
2023-05-01T16:05:26.892Z,101315.91
2023-05-01T16:08:07.141Z,101326.34
2023-05-01T16:10:40.828Z,101320.47
2023-05-01T16:13:21.137Z,101327.69
2023-05-01T16:15:54.575Z,101326.06
2023-05-01T16:18:31.152Z,101316.22
2023-05-01T16:21:05.129Z,101333.97
2023-05-01T16:23:39.119Z,101321.75
2023-05-01T16:26:06.892Z,101322.88
2023-05-01T16:28:43.119Z,101346.13
2023-05-01T16:31:23.430Z,101345.72
2023-05-01T16:34:01.118Z,101350.41
2023-05-01T16:36:28.163Z,101344.88
2023-05-01T16:39:01.153Z,101355.69
2023-05-01T16:41:28.015Z,101342.34
2023-05-01T16:44:05.117Z,101364.81
2023-05-01T16:49:28.260Z,101357.72
2023-05-01T16:51:57.406Z,101367.94
2023-05-01T16:54:39.302Z,101388.34
2023-05-01T16:57:06.319Z,101358.16
2023-05-01T17:02:20.686Z,101361.75
2023-05-01T17:04:54.224Z,101368.59
2023-05-01T17:17:47.908Z,101396.16
2023-05-01T17:20:14.840Z,101373.81
2023-05-01T17:22:52.098Z,101390.78
2023-05-01T17:25:19.117Z,101367.50
2023-05-01T17:27:52.145Z,101394.50
2023-05-01T17:30:19.140Z,101393.69
2023-05-01T17:32:53.395Z,101387.31
2023-05-01T17:35:20.673Z,101383.66
2023-05-01T17:40:45.031Z,101399.94
2023-05-01T17:43:24.993Z,101381.13
2023-05-01T17:45:51.838Z,101384.66
2023-05-01T17:48:27.244Z,101404.63
2023-05-01T17:50:56.009Z,101396.16
2023-05-01T17:53:48.129Z,101428.41
2023-05-01T17:56:15.149Z,101417.25
2023-05-01T17:58:51.164Z,101415.97
2023-05-01T18:01:18.213Z,101418.41
2023-05-01T18:03:52.299Z,101427.19
2023-05-01T18:06:38.317Z,101419.25
2023-05-01T18:09:05.341Z,101419.97
2023-05-01T18:11:47.163Z,101441.31
2023-05-01T18:14:20.316Z,101439.06
2023-05-01T18:16:54.363Z,101452.09
2023-05-01T18:19:23.762Z,101421.31
2023-05-01T18:22:04.249Z,101437.72
2023-05-01T18:24:33.711Z,101464.63
2023-05-01T18:27:07.234Z,101446.91
2023-05-01T18:29:34.242Z,101445.47
2023-05-01T18:34:51.724Z,101448.41
2023-05-01T18:37:33.278Z,101445.94
2023-05-01T18:40:03.318Z,101451.59
2023-05-01T18:42:38.270Z,101474.38
2023-05-01T18:45:21.355Z,101464.84
2023-05-01T18:47:56.806Z,101454.47
2023-05-01T18:50:24.495Z,101468.44
2023-05-01T18:52:54.539Z,101482.44
2023-05-01T18:55:32.527Z,101502.91
2023-05-01T18:58:10.103Z,101470.50
2023-05-01T19:03:26.277Z,101482.44
2023-05-01T19:06:01.249Z,101486.03
2023-05-01T19:08:31.887Z,101504.66
2023-05-01T19:11:05.275Z,101518.06
2023-05-01T19:13:52.353Z,101495.03
2023-05-01T19:16:29.111Z,101502.97
2023-05-01T19:18:59.200Z,101531.09
2023-05-01T19:24:17.948Z,101510.69
2023-05-01T19:27:13.258Z,101537.47
2023-05-01T19:29:43.877Z,101541.38
2023-05-01T19:32:22.369Z,101504.31
2023-05-01T19:34:56.548Z,101526.69
2023-05-01T19:37:34.461Z,101517.00
2023-05-01T19:40:04.003Z,101539.84
2023-05-01T19:42:38.251Z,101528.94
2023-05-01T19:45:07.221Z,101536.56
2023-05-01T19:47:43.956Z,101539.25
2023-05-01T19:50:13.844Z,101534.75
2023-05-01T19:52:55.202Z,101544.25
2023-05-01T19:55:29.425Z,101573.72
2023-05-01T20:00:53.277Z,101557.31
2023-05-01T20:03:20.864Z,101545.47
2023-05-01T20:05:54.501Z,101547.31
2023-05-01T20:08:22.843Z,101564.59
2023-05-01T20:10:56.267Z,101546.94
2023-05-01T20:13:32.296Z,101560.09
2023-05-01T20:16:14.670Z,101551.66
2023-05-01T20:18:53.356Z,101566.28
2023-05-01T20:21:27.183Z,101581.75
2023-05-01T20:23:56.465Z,101549.47
2023-05-01T20:29:11.017Z,101563.59
2023-05-01T20:31:47.252Z,101547.16
2023-05-01T20:34:16.657Z,101557.84
2023-05-01T20:36:48.850Z,101563.34
2023-05-01T20:45:33.929Z,101577.84
2023-05-01T20:48:02.045Z,101564.19
2023-05-01T20:50:42.372Z,101573.31
2023-05-01T20:53:17.317Z,101579.63
2023-05-01T20:55:48.072Z,101584.38
2023-05-01T20:58:31.255Z,101611.63
2023-05-01T21:00:59.456Z,101602.97
2023-05-01T21:03:32.417Z,101625.84
2023-05-01T21:06:09.361Z,101632.53
2023-05-01T21:08:45.809Z,101591.75
2023-05-01T21:11:19.363Z,101593.19
2023-05-01T21:14:04.358Z,101609.09
2023-05-01T21:16:43.699Z,101630.38
2023-05-01T21:22:51.416Z,101646.38
2023-05-01T21:31:26.174Z,101612.44
2023-05-01T21:33:53.935Z,101620.13
2023-05-01T21:36:30.876Z,101629.09
2023-05-01T21:39:08.096Z,101606.94
2023-05-01T21:44:24.430Z,101611.47
2023-05-01T21:47:37.615Z,101620.66
2023-05-01T21:50:08.124Z,101620.56
2023-05-01T21:52:46.489Z,101626.97
2023-05-01T21:58:40.883Z,101627.78
2023-05-01T22:01:13.851Z,101631.84
2023-05-01T22:03:54.318Z,101637.59
2023-05-01T22:06:28.413Z,101634.94
2023-05-01T22:09:03.802Z,101661.75
2023-05-01T22:11:33.860Z,101645.94
2023-05-01T22:14:13.326Z,101662.06
2023-05-01T22:16:47.579Z,101664.31
2023-05-01T22:19:22.417Z,101679.47
2023-05-01T22:21:52.760Z,101666.34
2023-05-01T22:24:30.348Z,101664.19
2023-05-01T22:36:22.783Z,101658.91
2023-05-01T22:38:54.568Z,101663.06
2023-05-01T22:47:54.432Z,101676.13
2023-05-01T22:58:46.640Z,101675.88
2023-05-01T23:01:19.313Z,101703.38
2023-05-01T23:08:10.645Z,101708.50
2023-05-01T23:10:53.504Z,101712.41
2023-05-01T23:32:01.466Z,101740.63
2023-05-01T23:37:22.276Z,101742.53
2023-05-01T23:39:56.389Z,101721.13
2023-05-01T23:42:28.570Z,101716.38
2023-05-01T23:45:02.447Z,101724.00
2023-05-01T23:56:40.502Z,101732.84
2023-05-01T23:59:08.428Z,101734.16
